Main page
METAR-TAF:

METAR-TAF

Airports :

Lille Airport

Lille, France

latitude: 50-34N, longitude: 003-06E, elevation: 48 m

Current weather observation

The report was made 30 minutes ago, at 19:30 UTC
Wind 9 kt from the North/Northwest
Temperature 18°C
Humidity 49%
Pressure 1025 hPa
Visibility 10 km or more
no clouds below 1500 m and no cumulonimbus

METAR: LFQQ 231930Z AUTO 33009KT CAVOK 18/07 Q1025 NOSIG

Time: 22:00 (20:00 UTC)

Forecast

The report was made 3 hours and 0 minutes ago, at 17:00 UTC
Forecast valid from 23 at 18 UTC to 24 at 24 UTC
Wind 3 kt from variable directions
Visibility 10 km or more
no clouds below 1500 m and no cumulonimbus
Becoming
from 24 at 07 UTC to 24 at 09 UTC
Wind 13 kt from the North
Becoming
from 24 at 22 UTC to 24 at 24 UTC
Wind 3 kt from variable directions

TAF: LFQQ 231700Z 2318/2424 VRB03KT CAVOK BECMG 2407/2409 36013KT BECMG 2422/2424 VRB03KT

Weather observations and forecasts of more than 4000 airports (METAR and TAF reports).

The available stations are represented by yellow and red dots on the map.

Hover mouse over dot to see the name of the station.

Then click to see weather observations and forecasts.

To change the map : click on the green buttons with a black cross to zoom in, on the green button with a dash to zoom out, or on the green arrows for adjacent maps.


METAR-TAF: